sensor_id;sensor_type;location;lat;lon;timestamp;pressure;altitude;pressure_sealevel;temperature;humidity
21129;BME280;10722;51.910;8.352;2023-08-20T00:01:49;101344.97;;;21.61;100.00
21129;BME280;10722;51.910;8.352;2023-08-20T00:04:39;101337.19;;;21.55;100.00
21129;BME280;10722;51.910;8.352;2023-08-20T00:07:25;101341.41;;;21.64;100.00
21129;BME280;10722;51.910;8.352;2023-08-20T00:10:11;101338.94;;;21.55;100.00
21129;BME280;10722;51.910;8.352;2023-08-20T00:12:56;101342.78;;;21.34;100.00
21129;BME280;10722;51.910;8.352;2023-08-20T00:15:41;101343.69;;;21.31;100.00
21129;BME280;10722;51.910;8.352;2023-08-20T00:18:26;101348.84;;;21.40;100.00
21129;BME280;10722;51.910;8.352;2023-08-20T00:21:13;101351.75;;;21.22;100.00
21129;BME280;10722;51.910;8.352;2023-08-20T00:23:59;101349.75;;;21.36;100.00
21129;BME280;10722;51.910;8.352;2023-08-20T00:26:44;101340.06;;;21.41;100.00
21129;BME280;10722;51.910;8.352;2023-08-20T00:29:29;101340.25;;;21.29;100.00
21129;BME280;10722;51.910;8.352;2023-08-20T00:32:14;101330.06;;;21.09;100.00
21129;BME280;10722;51.910;8.352;2023-08-20T00:35:00;101330.19;;;21.00;100.00
21129;BME280;10722;51.910;8.352;2023-08-20T00:37:45;101322.50;;;20.88;100.00
21129;BME280;10722;51.910;8.352;2023-08-20T00:40:30;101319.94;;;20.83;100.00
21129;BME280;10722;51.910;8.352;2023-08-20T00:43:16;101324.97;;;20.98;100.00
21129;BME280;10722;51.910;8.352;2023-08-20T00:46:01;101330.66;;;20.69;100.00
21129;BME280;10722;51.910;8.352;2023-08-20T00:48:46;101333.63;;;20.43;100.00
21129;BME280;10722;51.910;8.352;2023-08-20T00:51:33;101345.91;;;20.43;100.00
21129;BME280;10722;51.910;8.352;2023-08-20T00:54:19;101349.41;;;20.43;100.00
21129;BME280;10722;51.910;8.352;2023-08-20T00:57:06;101357.66;;;20.14;100.00
21129;BME280;10722;51.910;8.352;2023-08-20T00:59:51;101357.75;;;20.06;100.00
21129;BME280;10722;51.910;8.352;2023-08-20T01:02:38;101355.25;;;19.92;100.00
21129;BME280;10722;51.910;8.352;2023-08-20T01:05:23;101359.66;;;19.92;100.00
21129;BME280;10722;51.910;8.352;2023-08-20T01:08:37;101359.84;;;19.74;100.00
21129;BME280;10722;51.910;8.352;2023-08-20T01:11:31;101360.66;;;19.79;100.00
21129;BME280;10722;51.910;8.352;2023-08-20T01:14:20;101362.50;;;19.70;100.00
21129;BME280;10722;51.910;8.352;2023-08-20T01:17:06;101366.91;;;19.67;100.00
21129;BME280;10722;51.910;8.352;2023-08-20T01:19:51;101365.19;;;19.61;100.00
21129;BME280;10722;51.910;8.352;2023-08-20T01:22:52;101361.66;;;19.64;100.00
21129;BME280;10722;51.910;8.352;2023-08-20T01:28:47;101344.94;;;19.76;100.00
21129;BME280;10722;51.910;8.352;2023-08-20T01:31:33;101348.53;;;19.67;100.00
21129;BME280;10722;51.910;8.352;2023-08-20T01:34:18;101339.69;;;19.76;100.00
21129;BME280;10722;51.910;8.352;2023-08-20T01:37:03;101345.53;;;20.02;100.00
21129;BME280;10722;51.910;8.352;2023-08-20T01:39:48;101357.69;;;20.11;100.00
21129;BME280;10722;51.910;8.352;2023-08-20T01:42:33;101354.41;;;19.90;100.00
21129;BME280;10722;51.910;8.352;2023-08-20T01:45:18;101352.09;;;19.60;100.00
21129;BME280;10722;51.910;8.352;2023-08-20T01:48:03;101346.66;;;19.78;100.00
21129;BME280;10722;51.910;8.352;2023-08-20T01:50:49;101343.25;;;19.72;100.00
21129;BME280;10722;51.910;8.352;2023-08-20T01:53:34;101360.78;;;19.62;100.00
21129;BME280;10722;51.910;8.352;2023-08-20T01:56:19;101356.38;;;19.70;100.00
21129;BME280;10722;51.910;8.352;2023-08-20T01:59:04;101357.34;;;19.60;100.00
21129;BME280;10722;51.910;8.352;2023-08-20T02:01:49;101353.09;;;19.46;100.00
21129;BME280;10722;51.910;8.352;2023-08-20T02:04:34;101355.75;;;19.43;100.00
21129;BME280;10722;51.910;8.352;2023-08-20T02:07:19;101360.13;;;19.41;100.00
21129;BME280;10722;51.910;8.352;2023-08-20T02:10:05;101364.56;;;19.35;100.00
21129;BME280;10722;51.910;8.352;2023-08-20T02:12:50;101355.72;;;19.45;100.00
21129;BME280;10722;51.910;8.352;2023-08-20T02:15:35;101354.88;;;19.40;100.00
21129;BME280;10722;51.910;8.352;2023-08-20T02:18:20;101365.34;;;19.46;100.00
21129;BME280;10722;51.910;8.352;2023-08-20T02:21:05;101364.38;;;19.55;100.00
21129;BME280;10722;51.910;8.352;2023-08-20T02:23:49;101372.28;;;19.50;100.00
21129;BME280;10722;51.910;8.352;2023-08-20T02:26:35;101379.44;;;19.33;100.00
21129;BME280;10722;51.910;8.352;2023-08-20T02:29:20;101386.38;;;19.43;100.00
21129;BME280;10722;51.910;8.352;2023-08-20T02:32:05;101384.69;;;19.33;100.00
21129;BME280;10722;51.910;8.352;2023-08-20T02:34:50;101374.28;;;19.23;100.00
21129;BME280;10722;51.910;8.352;2023-08-20T02:37:36;101368.88;;;19.43;100.00
21129;BME280;10722;51.910;8.352;2023-08-20T02:40:21;101375.94;;;19.34;100.00
21129;BME280;10722;51.910;8.352;2023-08-20T02:43:06;101382.06;;;19.33;100.00
21129;BME280;10722;51.910;8.352;2023-08-20T02:45:51;101391.63;;;19.41;100.00
21129;BME280;10722;51.910;8.352;2023-08-20T02:48:36;101387.25;;;19.40;100.00
21129;BME280;10722;51.910;8.352;2023-08-20T02:51:21;101392.53;;;19.34;100.00
21129;BME280;10722;51.910;8.352;2023-08-20T02:54:06;101394.31;;;19.31;100.00
21129;BME280;10722;51.910;8.352;2023-08-20T02:56:51;101398.91;;;18.99;100.00
21129;BME280;10722;51.910;8.352;2023-08-20T02:59:36;101398.13;;;18.90;100.00
21129;BME280;10722;51.910;8.352;2023-08-20T03:02:21;101403.34;;;18.93;100.00
21129;BME280;10722;51.910;8.352;2023-08-20T03:05:06;101402.38;;;19.03;100.00
21129;BME280;10722;51.910;8.352;2023-08-20T03:07:51;101412.78;;;19.17;100.00
21129;BME280;10722;51.910;8.352;2023-08-20T03:10:36;101400.66;;;19.00;100.00
21129;BME280;10722;51.910;8.352;2023-08-20T03:13:21;101402.41;;;19.00;100.00
21129;BME280;10722;51.910;8.352;2023-08-20T03:16:06;101402.38;;;19.03;100.00
21129;BME280;10722;51.910;8.352;2023-08-20T03:18:51;101413.63;;;19.23;100.00
21129;BME280;10722;51.910;8.352;2023-08-20T03:21:37;101405.69;;;19.28;100.00
21129;BME280;10722;51.910;8.352;2023-08-20T03:24:22;101400.41;;;19.36;100.00
21129;BME280;10722;51.910;8.352;2023-08-20T03:27:07;101400.53;;;19.19;100.00
21129;BME280;10722;51.910;8.352;2023-08-20T03:29:52;101398.78;;;19.21;100.00
21129;BME280;10722;51.910;8.352;2023-08-20T03:32:37;101403.94;;;19.29;100.00
21129;BME280;10722;51.910;8.352;2023-08-20T03:35:22;101406.53;;;19.38;100.00
21129;BME280;10722;51.910;8.352;2023-08-20T03:38:07;101401.31;;;19.35;100.00
21129;BME280;10722;51.910;8.352;2023-08-20T03:40:51;101403.84;;;19.44;100.00
21129;BME280;10722;51.910;8.352;2023-08-20T03:43:36;101416.88;;;19.53;100.00
21129;BME280;10722;51.910;8.352;2023-08-20T03:46:21;101403.72;;;19.56;100.00
21129;BME280;10722;51.910;8.352;2023-08-20T03:49:06;101408.13;;;19.54;100.00
21129;BME280;10722;51.910;8.352;2023-08-20T03:51:52;101395.19;;;19.33;100.00
21129;BME280;10722;51.910;8.352;2023-08-20T03:54:37;101405.59;;;19.42;100.00
21129;BME280;10722;51.910;8.352;2023-08-20T03:57:22;101415.22;;;19.41;100.00
21129;BME280;10722;51.910;8.352;2023-08-20T04:00:07;101429.31;;;19.30;100.00
21129;BME280;10722;51.910;8.352;2023-08-20T04:02:52;101428.41;;;19.31;100.00
21129;BME280;10722;51.910;8.352;2023-08-20T04:05:38;101426.69;;;19.30;100.00
21129;BME280;10722;51.910;8.352;2023-08-20T04:08:23;101440.66;;;19.29;100.00
21129;BME280;10722;51.910;8.352;2023-08-20T04:11:08;101451.16;;;19.32;100.00
21129;BME280;10722;51.910;8.352;2023-08-20T04:13:53;101443.16;;;19.45;100.00
21129;BME280;10722;51.910;8.352;2023-08-20T04:16:38;101445.00;;;19.34;100.00
21129;BME280;10722;51.910;8.352;2023-08-20T04:19:23;101443.31;;;19.25;100.00
21129;BME280;10722;51.910;8.352;2023-08-20T04:22:08;101438.97;;;19.20;100.00
21129;BME280;10722;51.910;8.352;2023-08-20T04:24:53;101452.00;;;19.38;100.00
21129;BME280;10722;51.910;8.352;2023-08-20T04:27:38;101450.31;;;19.30;100.00
21129;BME280;10722;51.910;8.352;2023-08-20T04:30:23;101457.19;;;19.46;100.00
21129;BME280;10722;51.910;8.352;2023-08-20T04:33:08;101464.97;;;19.55;100.00
21129;BME280;10722;51.910;8.352;2023-08-20T04:35:53;101456.25;;;19.53;100.00
21129;BME280;10722;51.910;8.352;2023-08-20T04:38:38;101456.25;;;19.55;100.00
21129;BME280;10722;51.910;8.352;2023-08-20T04:41:23;101465.81;;;19.59;100.00
21129;BME280;10722;51.910;8.352;2023-08-20T04:44:08;101462.31;;;19.57;100.00
21129;BME280;10722;51.910;8.352;2023-08-20T04:46:53;101451.88;;;19.52;100.00
21129;BME280;10722;51.910;8.352;2023-08-20T04:49:39;101457.28;;;19.32;100.00
21129;BME280;10722;51.910;8.352;2023-08-20T04:52:24;101449.38;;;19.34;100.00
21129;BME280;10722;51.910;8.352;2023-08-20T04:55:09;101457.19;;;19.46;100.00
21129;BME280;10722;51.910;8.352;2023-08-20T04:57:54;101439.78;;;19.31;100.00
21129;BME280;10722;51.910;8.352;2023-08-20T05:00:39;101447.63;;;19.36;100.00
21129;BME280;10722;51.910;8.352;2023-08-20T05:03:25;101431.66;;;19.62;100.00
21129;BME280;10722;51.910;8.352;2023-08-20T05:06:10;101429.25;;;19.40;100.00
21129;BME280;10722;51.910;8.352;2023-08-20T05:08:55;101430.16;;;19.35;100.00
21129;BME280;10722;51.910;8.352;2023-08-20T05:11:40;101441.44;;;19.44;100.00
21129;BME280;10722;51.910;8.352;2023-08-20T05:14:25;101434.50;;;19.40;100.00
21129;BME280;10722;51.910;8.352;2023-08-20T05:17:10;101438.91;;;19.31;100.00
21129;BME280;10722;51.910;8.352;2023-08-20T05:19:56;101439.84;;;19.26;100.00
21129;BME280;10722;51.910;8.352;2023-08-20T05:22:41;101440.69;;;19.25;100.00
21129;BME280;10722;51.910;8.352;2023-08-20T05:25:26;101452.88;;;19.34;100.00
21129;BME280;10722;51.910;8.352;2023-08-20T05:28:11;101450.91;;;19.67;100.00
21129;BME280;10722;51.910;8.352;2023-08-20T05:30:56;101445.75;;;19.55;100.00
21129;BME280;10722;51.910;8.352;2023-08-20T05:33:41;101445.69;;;19.59;100.00
21129;BME280;10722;51.910;8.352;2023-08-20T05:36:26;101450.03;;;19.69;100.00
21129;BME280;10722;51.910;8.352;2023-08-20T05:39:11;101452.44;;;19.94;100.00
21129;BME280;10722;51.910;8.352;2023-08-20T05:41:56;101441.09;;;19.87;100.00
21129;BME280;10722;51.910;8.352;2023-08-20T05:44:42;101442.75;;;19.98;100.00
21129;BME280;10722;51.910;8.352;2023-08-20T05:47:26;101441.81;;;20.05;100.00
21129;BME280;10722;51.910;8.352;2023-08-20T05:50:11;101441.69;;;20.17;100.00
21129;BME280;10722;51.910;8.352;2023-08-20T05:52:56;101429.25;;;20.30;100.00
21129;BME280;10722;51.910;8.352;2023-08-20T05:55:41;101417.72;;;20.45;100.00
21129;BME280;10722;51.910;8.352;2023-08-20T05:58:26;101409.84;;;20.45;100.00
21129;BME280;10722;51.910;8.352;2023-08-20T06:01:11;101406.16;;;20.61;100.00
21129;BME280;10722;51.910;8.352;2023-08-20T06:03:56;101406.09;;;20.66;100.00
21129;BME280;10722;51.910;8.352;2023-08-20T06:06:41;101399.63;;;20.88;100.00
21129;BME280;10722;51.910;8.352;2023-08-20T06:09:26;101401.22;;;21.00;100.00
21129;BME280;10722;51.910;8.352;2023-08-20T06:12:11;101390.69;;;21.01;100.00
21129;BME280;10722;51.910;8.352;2023-08-20T06:14:57;101388.81;;;21.10;100.00
21129;BME280;10722;51.910;8.352;2023-08-20T06:17:42;101385.56;;;21.48;100.00
21129;BME280;10722;51.910;8.352;2023-08-20T06:20:27;101354.22;;;21.31;100.00
21129;BME280;10722;51.910;8.352;2023-08-20T06:23:12;101359.53;;;21.28;100.00
21129;BME280;10722;51.910;8.352;2023-08-20T06:26:11;101371.72;;;21.34;100.00
21129;BME280;10722;51.910;8.352;2023-08-20T06:28:56;101380.50;;;21.34;100.00
21129;BME280;10722;51.910;8.352;2023-08-20T06:31:41;101389.09;;;21.48;100.00
21129;BME280;10722;51.910;8.352;2023-08-20T06:34:27;101399.81;;;21.86;100.00
21129;BME280;10722;51.910;8.352;2023-08-20T06:37:12;101401.44;;;21.93;100.00
21129;BME280;10722;51.910;8.352;2023-08-20T06:39:56;101401.16;;;22.07;100.00
21129;BME280;10722;51.910;8.352;2023-08-20T06:42:41;101396.53;;;22.21;100.00
21129;BME280;10722;51.910;8.352;2023-08-20T06:45:26;101398.75;;;22.41;100.00
21129;BME280;10722;51.910;8.352;2023-08-20T06:48:11;101374.22;;;22.39;97.96
21129;BME280;10722;51.910;8.352;2023-08-20T06:50:57;101363.72;;;22.36;97.78
21129;BME280;10722;51.910;8.352;2023-08-20T06:53:42;101373.50;;;22.71;97.41
21129;BME280;10722;51.910;8.352;2023-08-20T06:56:27;101353.84;;;22.85;95.85
21129;BME280;10722;51.910;8.352;2023-08-20T06:59:12;101356.81;;;23.08;95.03
21129;BME280;10722;51.910;8.352;2023-08-20T07:01:57;101352.69;;;22.98;93.75
21129;BME280;10722;51.910;8.352;2023-08-20T07:04:42;101362.00;;;22.74;94.07
21129;BME280;10722;51.910;8.352;2023-08-20T07:07:27;101376.59;;;22.89;95.16
21129;BME280;10722;51.910;8.352;2023-08-20T07:10:12;101380.97;;;22.51;95.40
21129;BME280;10722;51.910;8.352;2023-08-20T07:12:57;101390.94;;;22.78;96.76
21129;BME280;10722;51.910;8.352;2023-08-20T07:15:42;101392.38;;;22.53;95.66
21129;BME280;10722;51.910;8.352;2023-08-20T07:18:27;101396.16;;;22.40;96.50
21129;BME280;10722;51.910;8.352;2023-08-20T07:21:13;101401.66;;;22.69;96.90
21129;BME280;10722;51.910;8.352;2023-08-20T07:23:58;101398.44;;;22.97;95.45
21129;BME280;10722;51.910;8.352;2023-08-20T07:26:43;101382.03;;;23.21;94.80
21129;BME280;10722;51.910;8.352;2023-08-20T07:29:29;101390.22;;;23.45;94.51
21129;BME280;10722;51.910;8.352;2023-08-20T07:32:14;101384.81;;;23.51;94.00
21129;BME280;10722;51.910;8.352;2023-08-20T07:34:59;101393.81;;;23.42;94.13
21129;BME280;10722;51.910;8.352;2023-08-20T07:37:44;101388.09;;;23.25;94.50
21129;BME280;10722;51.910;8.352;2023-08-20T07:40:29;101406.03;;;23.11;95.06
21129;BME280;10722;51.910;8.352;2023-08-20T07:43:15;101413.69;;;23.21;95.52
21129;BME280;10722;51.910;8.352;2023-08-20T07:46:00;101417.34;;;23.16;96.06
21129;BME280;10722;51.910;8.352;2023-08-20T07:48:45;101424.88;;;23.31;96.58
21129;BME280;10722;51.910;8.352;2023-08-20T07:51:30;101404.25;;;23.48;95.69
21129;BME280;10722;51.910;8.352;2023-08-20T07:54:15;101395.66;;;23.39;94.37
21129;BME280;10722;51.910;8.352;2023-08-20T07:57:00;101393.00;;;23.40;93.83
21129;BME280;10722;51.910;8.352;2023-08-20T07:59:45;101408.25;;;23.63;95.01
21129;BME280;10722;51.910;8.352;2023-08-20T08:02:31;101377.75;;;23.86;92.85
21129;BME280;10722;51.910;8.352;2023-08-20T08:05:16;101376.50;;;23.99;91.84
21129;BME280;10722;51.910;8.352;2023-08-20T08:08:01;101374.34;;;24.13;92.20
21129;BME280;10722;51.910;8.352;2023-08-20T08:10:46;101384.72;;;24.20;92.08
21129;BME280;10722;51.910;8.352;2023-08-20T08:13:31;101397.56;;;24.33;92.76
21129;BME280;10722;51.910;8.352;2023-08-20T08:16:16;101402.47;;;24.47;93.47
21129;BME280;10722;51.910;8.352;2023-08-20T08:19:02;101390.97;;;24.78;92.49
21129;BME280;10722;51.910;8.352;2023-08-20T08:21:47;101368.53;;;24.62;90.31
21129;BME280;10722;51.910;8.352;2023-08-20T08:24:32;101377.81;;;24.75;90.51
21129;BME280;10722;51.910;8.352;2023-08-20T08:27:17;101381.25;;;25.05;90.25
21129;BME280;10722;51.910;8.352;2023-08-20T08:30:02;101380.50;;;25.30;89.98
21129;BME280;10722;51.910;8.352;2023-08-20T08:32:48;101366.44;;;25.54;88.87
21129;BME280;10722;51.910;8.352;2023-08-20T08:35:33;101357.44;;;25.85;87.27
21129;BME280;10722;51.910;8.352;2023-08-20T08:38:18;101339.00;;;25.55;85.55
21129;BME280;10722;51.910;8.352;2023-08-20T08:41:04;101367.91;;;25.36;87.78
21129;BME280;10722;51.910;8.352;2023-08-20T08:43:55;101376.13;;;25.54;88.09
21129;BME280;10722;51.910;8.352;2023-08-20T08:46:40;101365.78;;;25.98;86.60
21129;BME280;10722;51.910;8.352;2023-08-20T08:49:26;101368.47;;;25.19;87.25
21129;BME280;10722;51.910;8.352;2023-08-20T08:52:11;101369.19;;;24.96;87.50
21129;BME280;10722;51.910;8.352;2023-08-20T08:54:56;101388.56;;;24.98;88.63
21129;BME280;10722;51.910;8.352;2023-08-20T08:57:42;101367.44;;;25.50;86.56
21129;BME280;10722;51.910;8.352;2023-08-20T09:00:26;101355.00;;;25.77;85.11
21129;BME280;10722;51.910;8.352;2023-08-20T09:03:11;101365.56;;;26.04;85.71
21129;BME280;10722;51.910;8.352;2023-08-20T09:06:01;101325.03;;;26.00;82.72
21129;BME280;10722;51.910;8.352;2023-08-20T09:08:47;101328.75;;;25.96;83.21
21129;BME280;10722;51.910;8.352;2023-08-20T09:11:35;101304.38;;;26.32;80.81
21129;BME280;10722;51.910;8.352;2023-08-20T09:14:30;101305.97;;;26.14;80.81
21129;BME280;10722;51.910;8.352;2023-08-20T09:17:15;101259.06;;;26.60;77.64
21129;BME280;10722;51.910;8.352;2023-08-20T09:20:00;101267.34;;;26.52;77.80
21129;BME280;10722;51.910;8.352;2023-08-20T09:22:48;101292.53;;;26.41;78.10
21129;BME280;10722;51.910;8.352;2023-08-20T09:25:34;101274.91;;;26.39;77.22
21129;BME280;10722;51.910;8.352;2023-08-20T09:28:19;101237.72;;;26.63;75.43
21129;BME280;10722;51.910;8.352;2023-08-20T09:31:03;101261.34;;;26.25;76.71
21129;BME280;10722;51.910;8.352;2023-08-20T09:33:52;101326.56;;;26.07;80.57
21129;BME280;10722;51.910;8.352;2023-08-20T09:36:37;101318.94;;;26.44;79.36
21129;BME280;10722;51.910;8.352;2023-08-20T09:39:22;101293.91;;;26.29;78.02
21129;BME280;10722;51.910;8.352;2023-08-20T09:42:09;101303.72;;;25.78;79.14
21129;BME280;10722;51.910;8.352;2023-08-20T09:44:55;101298.63;;;26.66;78.22
21129;BME280;10722;51.910;8.352;2023-08-20T09:47:43;101246.88;;;27.19;74.65
21129;BME280;10722;51.910;8.352;2023-08-20T09:50:30;101243.34;;;26.98;73.82
21129;BME280;10722;51.910;8.352;2023-08-20T09:53:27;101246.53;;;26.64;72.93
21129;BME280;10722;51.910;8.352;2023-08-20T09:56:30;101315.50;;;26.42;75.99
21129;BME280;10722;51.910;8.352;2023-08-20T09:59:16;101335.25;;;26.11;76.99
21129;BME280;10722;51.910;8.352;2023-08-20T10:02:02;101338.13;;;26.28;77.24
21129;BME280;10722;51.910;8.352;2023-08-20T10:04:47;101316.97;;;26.49;75.35
21129;BME280;10722;51.910;8.352;2023-08-20T10:07:35;101321.53;;;26.91;75.22
21129;BME280;10722;51.910;8.352;2023-08-20T10:10:21;101265.56;;;26.53;72.29
21129;BME280;10722;51.910;8.352;2023-08-20T10:13:07;101284.47;;;26.22;73.04
21129;BME280;10722;51.910;8.352;2023-08-20T10:15:52;101283.69;;;26.42;72.43
21129;BME280;10722;51.910;8.352;2023-08-20T10:18:38;101270.22;;;27.11;71.47
21129;BME280;10722;51.910;8.352;2023-08-20T10:21:24;101220.84;;;27.07;68.76
21129;BME280;10722;51.910;8.352;2023-08-20T10:24:09;101233.78;;;27.55;68.34
21129;BME280;10722;51.910;8.352;2023-08-20T10:27:10;101218.94;;;28.08;66.28
21129;BME280;10722;51.910;8.352;2023-08-20T10:29:55;101188.34;;;28.35;65.07
21129;BME280;10722;51.910;8.352;2023-08-20T10:32:49;101152.69;;;27.84;63.17
21129;BME280;10722;51.910;8.352;2023-08-20T10:38:24;101166.63;;;27.89;60.75
21129;BME280;10722;51.910;8.352;2023-08-20T10:41:09;101246.34;;;27.91;64.29
21129;BME280;10722;51.910;8.352;2023-08-20T10:43:59;101227.94;;;28.05;63.29
21129;BME280;10722;51.910;8.352;2023-08-20T10:46:53;101229.00;;;27.02;64.43
21129;BME280;10722;51.910;8.352;2023-08-20T10:49:38;101268.81;;;26.81;66.46
21129;BME280;10722;51.910;8.352;2023-08-20T10:52:23;101266.19;;;27.02;65.74
21129;BME280;10722;51.910;8.352;2023-08-20T10:55:08;101274.00;;;27.27;66.30
21129;BME280;10722;51.910;8.352;2023-08-20T10:57:57;101301.97;;;27.14;67.99
21129;BME280;10722;51.910;8.352;2023-08-20T11:00:42;101252.28;;;27.17;65.47
21129;BME280;10722;51.910;8.352;2023-08-20T11:03:27;101278.16;;;27.33;66.23
21129;BME280;10722;51.910;8.352;2023-08-20T11:06:13;101279.50;;;27.43;66.29
21129;BME280;10722;51.910;8.352;2023-08-20T11:08:58;101272.72;;;27.36;65.88
21129;BME280;10722;51.910;8.352;2023-08-20T11:11:44;101285.75;;;27.21;66.82
21129;BME280;10722;51.910;8.352;2023-08-20T11:14:29;101306.09;;;26.11;68.45
21129;BME280;10722;51.910;8.352;2023-08-20T11:17:14;101342.75;;;25.49;70.69
21129;BME280;10722;51.910;8.352;2023-08-20T11:20:00;101351.25;;;25.84;71.66
21129;BME280;10722;51.910;8.352;2023-08-20T11:22:53;101364.19;;;26.17;71.71
21129;BME280;10722;51.910;8.352;2023-08-20T11:25:41;101347.94;;;26.03;71.03
21129;BME280;10722;51.910;8.352;2023-08-20T11:28:27;101349.44;;;26.33;70.39
21129;BME280;10722;51.910;8.352;2023-08-20T11:31:13;101369.44;;;26.19;71.92
21129;BME280;10722;51.910;8.352;2023-08-20T11:33:58;101396.38;;;26.55;74.22
21129;BME280;10722;51.910;8.352;2023-08-20T11:36:43;101343.41;;;26.75;70.90
21129;BME280;10722;51.910;8.352;2023-08-20T11:39:29;101329.84;;;27.03;69.76
21129;BME280;10722;51.910;8.352;2023-08-20T11:42:14;101286.13;;;27.33;66.87
21129;BME280;10722;51.910;8.352;2023-08-20T11:44:59;101233.59;;;27.39;64.09
21129;BME280;10722;51.910;8.352;2023-08-20T11:47:44;101280.94;;;27.50;65.74
21129;BME280;10722;51.910;8.352;2023-08-20T11:50:29;101256.75;;;27.15;65.51
21129;BME280;10722;51.910;8.352;2023-08-20T11:53:14;101278.72;;;27.20;66.30
21129;BME280;10722;51.910;8.352;2023-08-20T11:55:59;101256.75;;;27.15;65.55
21129;BME280;10722;51.910;8.352;2023-08-20T11:58:51;101284.22;;;27.96;65.79
21129;BME280;10722;51.910;8.352;2023-08-20T12:01:37;101262.47;;;28.97;63.74
21129;BME280;10722;51.910;8.352;2023-08-20T12:04:27;101191.34;;;29.49;59.64
21129;BME280;10722;51.910;8.352;2023-08-20T12:07:15;101184.16;;;29.52;58.73
21129;BME280;10722;51.910;8.352;2023-08-20T12:10:18;101205.53;;;29.17;59.66
21129;BME280;10722;51.910;8.352;2023-08-20T12:13:04;101191.13;;;28.32;60.56
21129;BME280;10722;51.910;8.352;2023-08-20T12:15:49;101235.00;;;29.64;61.00
21129;BME280;10722;51.910;8.352;2023-08-20T12:18:34;101150.63;;;30.87;55.65
21129;BME280;10722;51.910;8.352;2023-08-20T12:21:19;101182.97;;;31.11;57.40
21129;BME280;10722;51.910;8.352;2023-08-20T12:24:04;101176.69;;;31.69;56.55
21129;BME280;10722;51.910;8.352;2023-08-20T12:26:49;101137.97;;;32.17;54.31
21129;BME280;10722;51.910;8.352;2023-08-20T12:29:35;101184.13;;;31.64;56.78
21129;BME280;10722;51.910;8.352;2023-08-20T12:32:21;101196.19;;;31.29;57.63
21129;BME280;10722;51.910;8.352;2023-08-20T12:35:06;101186.97;;;30.59;58.27
21129;BME280;10722;51.910;8.352;2023-08-20T12:37:51;101205.09;;;30.85;58.64
21129;BME280;10722;51.910;8.352;2023-08-20T12:40:36;101111.88;;;31.79;52.64
21129;BME280;10722;51.910;8.352;2023-08-20T12:43:21;101120.38;;;31.15;53.37
21129;BME280;10722;51.910;8.352;2023-08-20T12:46:06;101103.00;;;31.08;52.64
21129;BME280;10722;51.910;8.352;2023-08-20T12:48:52;101076.25;;;30.65;51.26
21129;BME280;10722;51.910;8.352;2023-08-20T12:51:37;101122.94;;;30.88;52.81
21129;BME280;10722;51.910;8.352;2023-08-20T12:54:22;101156.72;;;31.61;53.81
21129;BME280;10722;51.910;8.352;2023-08-20T12:57:07;101117.56;;;32.01;50.96
21129;BME280;10722;51.910;8.352;2023-08-20T12:59:51;101128.47;;;31.98;51.52
21129;BME280;10722;51.910;8.352;2023-08-20T13:02:37;101179.09;;;32.01;54.37
21129;BME280;10722;51.910;8.352;2023-08-20T13:05:23;101083.41;;;31.92;50.35
21129;BME280;10722;51.910;8.352;2023-08-20T13:08:09;101112.66;;;31.11;52.50
21129;BME280;10722;51.910;8.352;2023-08-20T13:10:56;101148.63;;;31.05;54.33
21129;BME280;10722;51.910;8.352;2023-08-20T13:13:42;101196.28;;;31.41;56.57
21129;BME280;10722;51.910;8.352;2023-08-20T13:16:27;101147.88;;;31.03;53.79
21129;BME280;10722;51.910;8.352;2023-08-20T13:19:13;101197.28;;;30.35;56.42
21129;BME280;10722;51.910;8.352;2023-08-20T13:21:58;101214.88;;;30.54;57.54
21129;BME280;10722;51.910;8.352;2023-08-20T13:24:43;101100.53;;;31.05;52.04
21129;BME280;10722;51.910;8.352;2023-08-20T13:27:28;101108.72;;;29.97;53.23
21129;BME280;10722;51.910;8.352;2023-08-20T13:30:15;101198.81;;;29.92;57.42
21129;BME280;10722;51.910;8.352;2023-08-20T13:33:00;101206.84;;;30.08;57.87
21129;BME280;10722;51.910;8.352;2023-08-20T13:35:45;101193.16;;;29.82;57.71
21129;BME280;10722;51.910;8.352;2023-08-20T13:38:31;101239.03;;;29.38;60.27
21129;BME280;10722;51.910;8.352;2023-08-20T13:41:15;101173.47;;;29.52;56.55
21129;BME280;10722;51.910;8.352;2023-08-20T13:44:01;101195.50;;;29.22;58.28
21129;BME280;10722;51.910;8.352;2023-08-20T13:46:46;101188.19;;;28.38;59.36
21129;BME280;10722;51.910;8.352;2023-08-20T13:49:31;101210.88;;;28.09;60.38
21129;BME280;10722;51.910;8.352;2023-08-20T13:52:16;101233.41;;;27.83;61.92
21129;BME280;10722;51.910;8.352;2023-08-20T13:55:01;101225.47;;;27.82;61.49
21129;BME280;10722;51.910;8.352;2023-08-20T13:57:46;101188.72;;;27.13;59.89
21129;BME280;10722;51.910;8.352;2023-08-20T14:00:32;101219.84;;;27.09;61.50
21129;BME280;10722;51.910;8.352;2023-08-20T14:03:17;101263.72;;;27.59;63.32
21129;BME280;10722;51.910;8.352;2023-08-20T14:06:03;101264.47;;;28.02;63.45
21129;BME280;10722;51.910;8.352;2023-08-20T14:08:48;101264.38;;;27.64;63.87
21129;BME280;10722;51.910;8.352;2023-08-20T14:11:33;101249.00;;;27.91;62.29
21129;BME280;10722;51.910;8.352;2023-08-20T14:14:18;101241.94;;;27.90;61.91
21129;BME280;10722;51.910;8.352;2023-08-20T14:17:03;101247.78;;;27.79;62.71
21129;BME280;10722;51.910;8.352;2023-08-20T14:19:48;101273.53;;;27.17;65.41
21129;BME280;10722;51.910;8.352;2023-08-20T14:22:33;101261.28;;;27.34;64.72
21129;BME280;10722;51.910;8.352;2023-08-20T14:25:19;101293.19;;;27.54;66.24
21129;BME280;10722;51.910;8.352;2023-08-20T14:28:04;101258.34;;;27.60;64.07